createdAt,value
2023-03-30T00:01:15.692Z,100059.28
2023-03-30T00:04:20.208Z,100013.13
2023-03-30T00:07:26.215Z,100043.69
2023-03-30T00:10:30.785Z,100064.38
2023-03-30T00:13:35.936Z,100073.03
2023-03-30T00:16:39.722Z,100075.38
2023-03-30T00:19:44.364Z,100077.38
2023-03-30T00:22:48.789Z,100080.16
2023-03-30T00:25:53.100Z,100084.53
2023-03-30T00:28:57.223Z,100091.09
2023-03-30T00:32:02.090Z,100078.47
2023-03-30T00:35:06.863Z,100084.53
2023-03-30T00:38:11.098Z,100098.22
2023-03-30T00:41:15.519Z,100078.34
2023-03-30T00:44:56.665Z,100097.78
2023-03-30T00:48:10.214Z,100107.28
2023-03-30T00:51:15.919Z,100113.44
2023-03-30T00:54:21.843Z,100123.25
2023-03-30T00:57:28.416Z,100123.59
2023-03-30T01:00:33.952Z,100109.81
2023-03-30T01:03:46.476Z,100118.72
2023-03-30T01:06:52.873Z,100129.34
2023-03-30T01:09:57.403Z,100131.19
2023-03-30T01:13:02.390Z,100126.28
2023-03-30T01:16:24.808Z,100135.06
2023-03-30T01:19:49.096Z,100138.72
2023-03-30T01:23:28.077Z,100135.13
2023-03-30T01:26:35.339Z,100137.00
2023-03-30T01:30:25.602Z,100127.72
2023-03-30T01:33:45.293Z,100145.53
2023-03-30T01:37:14.054Z,100143.13
2023-03-30T01:41:10.923Z,100149.25
2023-03-30T01:44:27.302Z,100120.47
2023-03-30T01:47:44.336Z,100135.09
2023-03-30T01:50:54.300Z,100137.28
2023-03-30T01:54:23.603Z,100141.59
2023-03-30T01:57:43.114Z,100145.06
2023-03-30T02:00:51.082Z,100134.94
2023-03-30T02:03:59.901Z,100141.94
2023-03-30T02:07:11.296Z,100150.66
2023-03-30T02:10:31.853Z,100151.75
2023-03-30T02:13:43.478Z,100125.69
2023-03-30T02:16:57.077Z,100158.28
2023-03-30T02:20:07.400Z,100144.16
2023-03-30T02:23:18.862Z,100126.91
2023-03-30T02:26:24.082Z,100140.97
2023-03-30T02:29:29.856Z,100130.28
2023-03-30T02:32:43.041Z,100118.69
2023-03-30T02:35:47.277Z,100135.91
2023-03-30T02:39:27.432Z,100127.72
2023-03-30T02:43:12.983Z,100122.47
2023-03-30T02:46:38.607Z,100128.03
2023-03-30T02:49:43.039Z,100097.09
2023-03-30T02:53:11.115Z,100128.69
2023-03-30T02:56:34.916Z,100086.06
2023-03-30T03:00:09.012Z,100123.34
2023-03-30T03:03:25.473Z,100130.09
2023-03-30T03:06:33.896Z,100108.16
2023-03-30T03:09:38.191Z,100121.16
2023-03-30T03:12:45.476Z,100124.25
2023-03-30T03:15:51.842Z,100129.41
2023-03-30T03:18:56.248Z,100132.84
2023-03-30T03:22:01.820Z,100123.03
2023-03-30T03:25:11.184Z,100117.31
2023-03-30T03:28:32.907Z,100114.47
2023-03-30T03:31:42.864Z,100096.75
2023-03-30T03:34:47.315Z,100105.66
2023-03-30T03:37:51.842Z,100105.28
2023-03-30T03:40:58.834Z,100091.34
2023-03-30T03:44:03.910Z,100121.63
2023-03-30T03:47:08.398Z,100122.22
2023-03-30T03:50:12.849Z,100120.75
2023-03-30T03:53:17.332Z,100118.66
2023-03-30T03:56:22.193Z,100130.56
2023-03-30T03:59:26.707Z,100130.91
2023-03-30T04:02:31.893Z,100130.53
2023-03-30T04:05:36.887Z,100125.50
2023-03-30T04:08:41.195Z,100131.09
2023-03-30T04:12:03.343Z,100114.34
2023-03-30T04:15:28.142Z,100128.63
2023-03-30T04:18:47.733Z,100129.94
2023-03-30T04:22:16.620Z,100108.06
2023-03-30T04:25:37.863Z,100129.84
2023-03-30T04:29:21.666Z,100128.31
2023-03-30T04:33:04.697Z,100131.03
2023-03-30T04:36:30.478Z,100121.38
2023-03-30T04:39:42.362Z,100111.28
2023-03-30T04:43:16.685Z,100146.78
2023-03-30T04:46:31.063Z,100143.59
2023-03-30T04:49:49.510Z,100150.56
2023-03-30T04:52:59.284Z,100149.31
2023-03-30T04:56:23.718Z,100143.75
2023-03-30T04:59:38.784Z,100150.88
2023-03-30T05:03:07.434Z,100141.34
2023-03-30T05:06:42.797Z,100163.78
2023-03-30T05:10:19.232Z,100141.78
2023-03-30T05:14:00.985Z,100168.53
2023-03-30T05:17:21.123Z,100171.06
2023-03-30T05:20:37.735Z,100186.88
2023-03-30T05:23:58.978Z,100191.31
2023-03-30T05:27:38.456Z,100181.34
2023-03-30T05:31:12.159Z,100186.13
2023-03-30T05:34:26.167Z,100184.00
2023-03-30T05:37:52.700Z,100198.94
2023-03-30T05:41:29.288Z,100201.25
2023-03-30T05:44:57.210Z,100189.44
2023-03-30T05:48:35.110Z,100212.28
2023-03-30T05:51:55.932Z,100203.94
2023-03-30T05:55:31.432Z,100191.31
2023-03-30T05:58:53.005Z,100197.31
2023-03-30T06:02:20.726Z,100214.50
2023-03-30T06:05:25.719Z,100212.56
2023-03-30T06:08:31.464Z,100212.78
2023-03-30T06:11:39.661Z,100215.84
2023-03-30T06:14:54.278Z,100218.16
2023-03-30T06:18:24.613Z,100217.03
2023-03-30T06:21:41.580Z,100215.09
2023-03-30T06:25:05.053Z,100214.59
2023-03-30T06:28:09.682Z,100219.84
2023-03-30T06:31:14.212Z,100219.75
2023-03-30T06:34:19.832Z,100217.81
2023-03-30T06:37:24.471Z,100224.97
2023-03-30T06:40:28.799Z,100227.38
2023-03-30T06:43:34.146Z,100230.72
2023-03-30T06:46:45.549Z,100224.25
2023-03-30T06:49:49.546Z,100230.22
2023-03-30T06:53:12.423Z,100241.72
2023-03-30T06:56:19.526Z,100227.44
2023-03-30T06:59:40.615Z,100236.78
2023-03-30T07:03:11.276Z,100224.16
2023-03-30T07:06:25.216Z,100249.88
2023-03-30T07:09:29.509Z,100240.06
2023-03-30T07:12:33.850Z,100265.31
2023-03-30T07:15:38.713Z,100254.22
2023-03-30T07:18:42.965Z,100267.72
2023-03-30T07:21:47.350Z,100268.28
2023-03-30T07:24:54.105Z,100279.25
2023-03-30T07:27:58.640Z,100276.25
2023-03-30T07:31:12.068Z,100264.69
2023-03-30T07:34:18.689Z,100283.47
2023-03-30T07:37:29.726Z,100291.91
2023-03-30T07:40:34.357Z,100280.59
2023-03-30T07:43:43.989Z,100272.38
2023-03-30T07:46:48.387Z,100284.41
2023-03-30T07:50:01.212Z,100303.00
2023-03-30T07:53:06.473Z,100297.53
2023-03-30T07:56:11.520Z,100300.97
2023-03-30T07:59:25.082Z,100315.47
2023-03-30T08:02:33.648Z,100319.59
2023-03-30T08:05:38.038Z,100306.84
2023-03-30T08:08:51.806Z,100306.66
2023-03-30T08:11:56.236Z,100315.78
2023-03-30T08:15:05.432Z,100342.78
2023-03-30T08:18:09.891Z,100336.09
2023-03-30T08:21:14.694Z,100341.69
2023-03-30T08:24:34.814Z,100335.25
2023-03-30T08:27:39.240Z,100317.09
2023-03-30T08:30:43.177Z,100341.78
2023-03-30T08:33:47.389Z,100338.84
2023-03-30T08:36:51.744Z,100328.44
2023-03-30T08:39:58.747Z,100336.44
2023-03-30T08:43:23.759Z,100346.25
2023-03-30T08:46:30.241Z,100326.25
2023-03-30T08:49:39.832Z,100360.22
2023-03-30T08:52:47.823Z,100353.81
2023-03-30T08:56:34.191Z,100366.50
2023-03-30T08:59:47.372Z,100296.75
2023-03-30T09:03:00.720Z,100341.53
2023-03-30T09:06:25.834Z,100376.72
2023-03-30T09:09:33.400Z,100376.19
2023-03-30T09:12:52.583Z,100363.88
2023-03-30T09:16:12.525Z,100395.03
2023-03-30T09:19:27.263Z,100386.91
2023-03-30T09:22:43.162Z,100385.34
2023-03-30T09:25:57.805Z,100403.41
2023-03-30T09:29:20.824Z,100408.13
2023-03-30T09:32:38.142Z,100403.25
2023-03-30T09:35:45.562Z,100409.91
2023-03-30T09:38:51.222Z,100403.34
2023-03-30T09:42:29.248Z,100418.56
2023-03-30T09:45:35.731Z,100430.53
2023-03-30T09:48:42.413Z,100366.06
2023-03-30T09:52:26.542Z,100418.25
2023-03-30T09:55:36.570Z,100428.47
2023-03-30T09:58:40.891Z,100433.63
2023-03-30T10:01:45.105Z,100431.34
2023-03-30T10:04:56.122Z,100444.69
2023-03-30T10:08:04.124Z,100432.69
2023-03-30T10:11:09.905Z,100443.34
2023-03-30T10:14:28.977Z,100457.06
2023-03-30T10:17:34.055Z,100457.44
2023-03-30T10:20:40.206Z,100467.97
2023-03-30T10:23:48.142Z,100481.31
2023-03-30T10:26:56.633Z,100481.41
2023-03-30T10:30:12.374Z,100485.09
2023-03-30T10:33:17.037Z,100467.03
2023-03-30T10:36:22.445Z,100496.88
2023-03-30T10:39:33.446Z,100454.75
2023-03-30T10:42:38.301Z,100479.28
2023-03-30T10:45:50.061Z,100487.31
2023-03-30T10:48:57.468Z,100511.84
2023-03-30T10:52:11.017Z,100509.16
2023-03-30T10:55:21.562Z,100516.28
2023-03-30T10:58:31.694Z,100516.28
2023-03-30T11:01:57.376Z,100518.84
2023-03-30T11:05:13.305Z,100507.53
2023-03-30T11:08:23.715Z,100512.78
2023-03-30T11:11:41.186Z,100514.53
2023-03-30T11:14:53.954Z,100526.81
2023-03-30T11:18:22.865Z,100536.34
2023-03-30T11:21:35.526Z,100539.84
2023-03-30T11:24:43.119Z,100491.69
2023-03-30T11:28:31.739Z,100553.03
2023-03-30T11:31:45.116Z,100551.19
2023-03-30T11:35:07.137Z,100551.25
2023-03-30T11:38:14.751Z,100556.44
2023-03-30T11:41:33.594Z,100518.66
2023-03-30T11:44:38.793Z,100538.00
2023-03-30T11:48:16.574Z,100563.19
2023-03-30T11:51:48.308Z,100561.34
2023-03-30T11:55:03.039Z,100561.56
2023-03-30T11:58:24.866Z,100565.91
2023-03-30T12:01:59.705Z,100550.00
2023-03-30T12:05:21.846Z,100566.53
2023-03-30T12:09:13.988Z,100563.84
2023-03-30T12:12:25.371Z,100483.72
2023-03-30T12:15:39.220Z,100574.91
2023-03-30T12:18:49.868Z,100566.88
2023-03-30T12:22:27.247Z,100562.97
2023-03-30T12:26:15.345Z,100561.94
2023-03-30T12:30:00.272Z,100531.31
2023-03-30T12:33:04.563Z,100565.38
2023-03-30T12:36:40.816Z,100574.63
2023-03-30T12:40:00.653Z,100577.34
2023-03-30T12:43:17.496Z,100584.13
2023-03-30T12:46:36.714Z,100417.19
2023-03-30T12:50:10.269Z,100590.94
2023-03-30T12:53:32.547Z,100592.06
2023-03-30T12:56:52.327Z,100596.72
2023-03-30T13:00:26.776Z,100600.38
2023-03-30T13:03:40.191Z,100594.38
2023-03-30T13:06:50.346Z,100598.72
2023-03-30T13:09:56.466Z,100599.84
2023-03-30T13:13:03.196Z,100607.41
2023-03-30T13:16:11.102Z,100610.13
2023-03-30T13:19:33.872Z,100628.88
2023-03-30T13:22:38.323Z,100604.69
2023-03-30T13:26:04.181Z,100596.97
2023-03-30T13:29:13.020Z,100632.59
2023-03-30T13:32:41.904Z,100633.50
2023-03-30T13:36:17.258Z,100623.00
2023-03-30T13:39:44.712Z,100624.53
2023-03-30T13:43:20.445Z,100622.97
2023-03-30T13:46:49.328Z,100629.31
2023-03-30T13:50:04.219Z,100618.56
2023-03-30T13:53:12.138Z,100641.25
2023-03-30T13:56:17.049Z,100647.44
2023-03-30T13:59:25.752Z,100648.13
2023-03-30T14:02:32.042Z,100646.69
2023-03-30T14:05:39.648Z,100649.09
2023-03-30T14:08:48.573Z,100649.00
2023-03-30T14:12:03.368Z,100641.19
2023-03-30T14:15:26.656Z,100647.09
2023-03-30T14:18:31.609Z,100645.09
2023-03-30T14:21:38.935Z,100638.81
2023-03-30T14:24:58.223Z,100664.63
2023-03-30T14:28:22.471Z,100658.44
2023-03-30T14:31:30.303Z,100651.31
2023-03-30T14:34:35.172Z,100655.50
2023-03-30T14:37:40.320Z,100645.41
2023-03-30T14:40:45.458Z,100660.38
2023-03-30T14:43:57.736Z,100652.28
2023-03-30T14:47:02.075Z,100630.16
2023-03-30T14:50:11.364Z,100672.53
2023-03-30T14:53:17.276Z,100657.59
2023-03-30T14:56:23.661Z,100634.69
2023-03-30T14:59:29.756Z,100664.72
2023-03-30T15:02:38.356Z,100655.72
2023-03-30T15:05:43.988Z,100669.75
2023-03-30T15:08:49.484Z,100613.53
2023-03-30T15:12:04.439Z,100651.03
2023-03-30T15:15:13.515Z,100671.44
2023-03-30T15:18:22.831Z,100651.47
2023-03-30T15:21:31.502Z,100660.31
2023-03-30T15:24:38.324Z,100666.25
2023-03-30T15:27:48.212Z,100668.19
2023-03-30T15:30:54.597Z,100670.38
2023-03-30T15:34:02.883Z,100662.69
2023-03-30T15:37:22.994Z,100691.59
2023-03-30T15:40:37.920Z,100690.69
2023-03-30T15:43:58.611Z,100683.50
2023-03-30T15:47:03.641Z,100692.72
2023-03-30T15:50:14.550Z,100699.41
2023-03-30T15:53:50.188Z,100701.38
2023-03-30T15:57:09.271Z,100705.00
2023-03-30T16:00:21.525Z,100702.00
2023-03-30T16:03:48.616Z,100694.88
2023-03-30T16:06:56.375Z,100697.28
2023-03-30T16:10:03.235Z,100698.25
2023-03-30T16:13:08.961Z,100698.91
2023-03-30T16:16:15.093Z,100707.53
2023-03-30T16:19:20.698Z,100705.16
2023-03-30T16:22:24.943Z,100712.59
2023-03-30T16:28:37.132Z,100710.53
2023-03-30T16:31:41.682Z,100712.59
2023-03-30T16:34:47.124Z,100712.03
2023-03-30T16:37:51.145Z,100710.22
2023-03-30T16:40:58.840Z,100709.56
2023-03-30T16:44:03.005Z,100711.69
2023-03-30T16:50:28.712Z,100702.78
2023-03-30T16:53:33.296Z,100708.72
2023-03-30T16:56:38.649Z,100707.53
2023-03-30T16:59:43.392Z,100706.72
2023-03-30T17:02:48.395Z,100710.56
2023-03-30T17:05:52.822Z,100699.16
2023-03-30T17:08:57.010Z,100702.59
2023-03-30T17:12:01.524Z,100704.47
2023-03-30T17:15:09.595Z,100698.16
2023-03-30T17:18:22.305Z,100708.03
2023-03-30T17:21:26.989Z,100701.13
2023-03-30T17:24:31.155Z,100724.66
2023-03-30T17:27:35.675Z,100726.72
2023-03-30T17:30:43.984Z,100716.22
2023-03-30T17:33:49.314Z,100727.56
2023-03-30T17:36:53.898Z,100733.53
2023-03-30T17:39:58.208Z,100727.66
2023-03-30T17:43:02.274Z,100744.50
2023-03-30T17:46:07.047Z,100736.03
2023-03-30T17:49:18.623Z,100740.25
2023-03-30T17:52:23.070Z,100642.25
2023-03-30T17:55:30.217Z,100727.25
2023-03-30T17:58:36.744Z,100728.94
2023-03-30T18:01:41.188Z,100719.84
2023-03-30T18:04:45.554Z,100704.13
2023-03-30T18:07:49.752Z,100732.94
2023-03-30T18:10:58.750Z,100748.16
2023-03-30T18:14:03.295Z,100744.19
2023-03-30T18:17:07.955Z,100746.97
2023-03-30T18:20:22.108Z,100753.75
2023-03-30T18:23:26.787Z,100709.59
2023-03-30T18:26:33.046Z,100763.84
2023-03-30T18:29:37.810Z,100773.16
2023-03-30T18:32:47.291Z,100763.66
2023-03-30T18:35:53.157Z,100773.56
2023-03-30T18:38:58.024Z,100757.81
2023-03-30T18:42:02.477Z,100772.69
2023-03-30T18:45:07.508Z,100726.78
2023-03-30T18:48:17.265Z,100760.09
2023-03-30T18:51:22.522Z,100760.22
2023-03-30T18:54:27.062Z,100763.66
2023-03-30T18:57:31.568Z,100725.28
2023-03-30T19:00:37.152Z,100754.66
2023-03-30T19:03:41.617Z,100782.25
2023-03-30T19:06:47.071Z,100793.53
2023-03-30T19:09:51.680Z,100805.66
2023-03-30T19:12:57.060Z,100787.88
2023-03-30T19:16:05.238Z,100791.41
2023-03-30T19:19:15.405Z,100779.22
2023-03-30T19:22:19.904Z,100796.59
2023-03-30T19:25:26.930Z,100786.56
2023-03-30T19:28:31.974Z,100817.91
2023-03-30T19:31:38.269Z,100772.00
2023-03-30T19:34:42.707Z,100790.41
2023-03-30T19:37:47.711Z,100789.03
2023-03-30T19:40:52.422Z,100802.63
2023-03-30T19:43:56.773Z,100815.88
2023-03-30T19:47:01.380Z,100807.28
2023-03-30T19:50:11.196Z,100824.50
2023-03-30T19:53:15.894Z,100825.25
2023-03-30T19:56:45.083Z,100827.56
2023-03-30T19:59:50.532Z,100833.78
2023-03-30T20:02:56.147Z,100839.34
2023-03-30T20:06:00.553Z,100811.03
2023-03-30T20:09:05.146Z,100836.22
2023-03-30T20:12:10.213Z,100846.72
2023-03-30T20:15:15.314Z,100848.72
2023-03-30T20:18:21.493Z,100858.28
2023-03-30T20:21:27.403Z,100863.72
2023-03-30T20:24:31.848Z,100869.03
2023-03-30T20:27:37.078Z,100873.03
2023-03-30T20:30:42.192Z,100873.38
2023-03-30T20:33:46.448Z,100870.06
2023-03-30T20:36:51.436Z,100867.63
2023-03-30T20:40:04.207Z,100872.84
2023-03-30T20:43:11.436Z,100888.47
2023-03-30T20:46:19.202Z,100886.94
2023-03-30T20:49:23.411Z,100884.06
2023-03-30T20:52:28.651Z,100884.13
2023-03-30T20:55:32.790Z,100883.53
2023-03-30T20:58:38.629Z,100895.63
2023-03-30T21:01:44.512Z,100887.75
2023-03-30T21:04:49.119Z,100897.34
2023-03-30T21:07:56.869Z,100888.28
2023-03-30T21:11:02.724Z,100912.06
2023-03-30T21:14:12.889Z,100930.03
2023-03-30T21:17:17.370Z,100931.69
2023-03-30T21:20:22.203Z,100932.91
2023-03-30T21:23:27.456Z,100931.78
2023-03-30T21:26:32.362Z,100943.38
2023-03-30T21:29:36.826Z,100921.97
2023-03-30T21:32:42.192Z,100929.34
2023-03-30T21:35:54.552Z,100928.19
2023-03-30T21:39:00.255Z,100944.59
2023-03-30T21:42:03.869Z,100948.28
2023-03-30T21:45:08.337Z,100926.91
2023-03-30T21:48:15.670Z,100937.34
2023-03-30T21:51:27.489Z,100932.16
2023-03-30T21:54:32.286Z,100937.38
2023-03-30T21:57:46.006Z,100956.94
2023-03-30T22:00:58.329Z,100956.28
2023-03-30T22:04:12.988Z,100957.03
2023-03-30T22:07:17.473Z,100971.00
2023-03-30T22:10:22.296Z,100959.97
2023-03-30T22:13:27.554Z,100974.25
2023-03-30T22:16:33.983Z,100976.06
2023-03-30T22:19:38.717Z,100983.72
2023-03-30T22:22:43.091Z,100993.44
2023-03-30T22:25:47.796Z,100997.00
2023-03-30T22:28:52.169Z,101004.03
2023-03-30T22:31:57.026Z,100996.78
2023-03-30T22:35:01.918Z,101006.66
2023-03-30T22:38:07.341Z,101012.03
2023-03-30T22:41:11.318Z,101016.47
2023-03-30T22:44:15.550Z,101018.16
2023-03-30T22:47:19.422Z,101019.75
2023-03-30T22:50:25.276Z,101014.44
2023-03-30T22:53:31.057Z,101016.84
2023-03-30T22:56:35.428Z,100954.66
2023-03-30T22:59:39.404Z,101013.53
2023-03-30T23:02:44.713Z,101006.78
2023-03-30T23:05:56.744Z,101022.44
2023-03-30T23:09:05.357Z,101008.69
2023-03-30T23:12:10.174Z,101026.38
2023-03-30T23:15:15.160Z,101038.78
2023-03-30T23:18:19.521Z,101036.38
2023-03-30T23:21:23.589Z,101026.78
2023-03-30T23:24:28.034Z,101031.84
2023-03-30T23:27:32.088Z,101046.28
2023-03-30T23:30:39.019Z,101026.22
2023-03-30T23:33:44.405Z,101039.06
2023-03-30T23:36:50.649Z,101040.28
2023-03-30T23:39:54.944Z,101048.19
2023-03-30T23:42:59.199Z,101037.44
2023-03-30T23:46:03.168Z,101041.66
2023-03-30T23:49:07.670Z,101044.94
2023-03-30T23:52:12.756Z,101052.91
2023-03-30T23:55:19.276Z,101033.16
2023-03-30T23:58:24.369Z,101052.78
